TimeEDT,TemperatureF,Dew PointF,Humidity,Sea Level PressureIn,VisibilityMPH,Wind Direction,Wind SpeedMPH,Gust SpeedMPH,PrecipitationIn,Events,Conditions,WindDirDegrees,DateUTC
12:53 AM,75.9,68.0,76,30.02,8.0,Calm,Calm,-,N/A,,Overcast,0,2013-08-27 04:53:00
1:53 AM,73.9,68.0,82,30.02,8.0,Calm,Calm,-,N/A,,Overcast,0,2013-08-27 05:53:00
2:53 AM,73.0,68.0,84,30.01,7.0,South,4.6,-,N/A,,Mostly Cloudy,190,2013-08-27 06:53:00
3:53 AM,73.0,66.9,81,30.00,6.0,SW,4.6,-,N/A,,Haze,220,2013-08-27 07:53:00
4:53 AM,72.0,66.9,84,29.99,6.0,SSW,4.6,-,N/A,,Haze,210,2013-08-27 08:53:00
5:53 AM,71.1,66.9,87,29.99,6.0,SSW,3.5,-,N/A,,Clear,210,2013-08-27 09:53:00
6:53 AM,72.0,69.1,91,30.00,5.0,SW,3.5,-,0.03,,Mostly Cloudy,230,2013-08-27 10:53:00
7:53 AM,73.0,69.1,87,30.01,4.0,Calm,Calm,-,0.00,Rain,Light Rain,0,2013-08-27 11:53:00
8:53 AM,72.0,69.1,91,30.03,3.0,Calm,Calm,-,0.00,,Overcast,0,2013-08-27 12:53:00
9:46 AM,73.4,69.8,88,30.00,2.0,SE,8.1,-,0.02,Rain,Light Rain,130,2013-08-27 13:46:00
9:53 AM,73.0,70.0,90,29.99,2.0,South,4.6,-,0.02,Rain,Light Rain,190,2013-08-27 13:53:00
9:56 AM,73.4,69.8,88,30.01,3.0,SW,6.9,-,0.00,Rain,Light Rain,220,2013-08-27 13:56:00
10:53 AM,75.9,71.1,85,30.01,5.0,SSW,4.6,-,0.00,,Haze,210,2013-08-27 14:53:00
11:53 AM,78.1,71.1,79,30.01,6.0,SSW,4.6,-,N/A,,Haze,200,2013-08-27 15:53:00
12:53 PM,80.1,71.1,74,29.99,6.0,South,8.1,-,N/A,,Haze,190,2013-08-27 16:53:00
1:53 PM,82.9,72.0,69,29.97,7.0,SSW,10.4,-,N/A,,Clear,210,2013-08-27 17:53:00
2:53 PM,84.0,73.0,69,29.95,8.0,SSW,11.5,17.3,N/A,,Clear,200,2013-08-27 18:53:00
3:53 PM,86.0,73.0,65,29.94,9.0,SSW,10.4,-,N/A,,Partly Cloudy,210,2013-08-27 19:53:00
4:53 PM,88.0,72.0,59,29.92,10.0,SW,12.7,18.4,N/A,,Clear,220,2013-08-27 20:53:00
5:53 PM,88.0,73.0,61,29.91,10.0,SW,10.4,18.4,N/A,,Partly Cloudy,220,2013-08-27 21:53:00
6:53 PM,88.0,73.0,61,29.91,10.0,SW,11.5,-,N/A,,Clear,220,2013-08-27 22:53:00
7:53 PM,86.0,73.0,65,29.90,10.0,SW,5.8,-,N/A,,Clear,220,2013-08-27 23:53:00
8:53 PM,82.9,73.0,72,29.90,10.0,SW,5.8,-,N/A,,Clear,220,2013-08-28 00:53:00
9:53 PM,81.0,73.0,77,29.90,10.0,SSW,4.6,-,N/A,,Scattered Clouds,210,2013-08-28 01:53:00
10:53 PM,82.0,72.0,71,29.89,10.0,SSW,6.9,-,N/A,,Scattered Clouds,210,2013-08-28 02:53:00
11:53 PM,81.0,71.1,72,29.89,10.0,SW,9.2,-,N/A,,Overcast,220,2013-08-28 03:53:00